METAR Data
IDs: Format: Raw Decoded Include TAF

Data at: 1240 UTC 17 Sep 2019

KMLB 171153Z 29005KT 9SM CLR 24/23 A2994 RMK AO2 SLP139 T02390228 10239 20228 53019

KMLB 171125Z 1712/1812 29007KT P6SM SKC
  FM171400 31011KT P6SM FEW030
  FM171800 01013KT P6SM SKC
  FM180000 04012KT P6SM FEW030


KTIX 171147Z 33005KT 7SM CLR A2995

KTIX 171125Z 1712/1812 33004KT P6SM SKC
  FM171400 32008KT P6SM FEW030
  FM171800 36010G18KT P6SM SKC
  FM180000 04005KT P6SM SKC


KCOF 171156Z AUTO 30010KT 10SM CLR 25/25 A2994 RMK AO2 SLP143 T02540254 10259 20251 52019 $

TAF KCOF 171000Z 1710/1816 31010G15KT 9999 FEW030 QNH2987INS
  BECMG 1723/1724 04012KT 9999 FEW035 FEW250 QNH2987INS TX32/1718Z TN25/1710Z


KVRB 171153Z 29006KT 7SM CLR 24/23 A2994 RMK AO2 SLP138 T02390228 10244 20228 53019

KVRB 171125Z 1712/1812 28006KT P6SM SKC
  FM171400 32009KT P6SM FEW030
  FM171700 34012G19KT P6SM FEW040
  FM172300 02008KT P6SM FEW030